sensor_id;sensor_type;location;lat;lon;timestamp;P1;durP1;ratioP1;P2;durP2;ratioP2
51718;SDS011;37795;53.236;5.704;2023-09-19T00:02:02;6.93;;;2.70;;
51718;SDS011;37795;53.236;5.704;2023-09-19T00:04:33;6.53;;;2.88;;
51718;SDS011;37795;53.236;5.704;2023-09-19T00:06:59;10.38;;;3.78;;
51718;SDS011;37795;53.236;5.704;2023-09-19T00:09:24;8.88;;;4.25;;
51718;SDS011;37795;53.236;5.704;2023-09-19T00:11:53;10.00;;;3.73;;
51718;SDS011;37795;53.236;5.704;2023-09-19T00:14:19;8.57;;;3.25;;
51718;SDS011;37795;53.236;5.704;2023-09-19T00:16:44;9.00;;;3.53;;
51718;SDS011;37795;53.236;5.704;2023-09-19T00:19:11;5.85;;;3.30;;
51718;SDS011;37795;53.236;5.704;2023-09-19T00:21:38;7.25;;;3.10;;
51718;SDS011;37795;53.236;5.704;2023-09-19T00:24:06;5.70;;;2.50;;
51718;SDS011;37795;53.236;5.704;2023-09-19T00:26:32;7.47;;;3.70;;
51718;SDS011;37795;53.236;5.704;2023-09-19T00:28:59;5.40;;;2.50;;
51718;SDS011;37795;53.236;5.704;2023-09-19T00:31:33;7.40;;;3.22;;
51718;SDS011;37795;53.236;5.704;2023-09-19T00:33:59;7.50;;;3.30;;
51718;SDS011;37795;53.236;5.704;2023-09-19T00:36:29;4.47;;;3.17;;
51718;SDS011;37795;53.236;5.704;2023-09-19T00:38:55;9.20;;;2.97;;
51718;SDS011;37795;53.236;5.704;2023-09-19T00:41:20;6.53;;;2.50;;
51718;SDS011;37795;53.236;5.704;2023-09-19T00:43:46;8.17;;;2.83;;
51718;SDS011;37795;53.236;5.704;2023-09-19T00:46:14;9.20;;;3.92;;
51718;SDS011;37795;53.236;5.704;2023-09-19T00:48:42;5.00;;;2.65;;
51718;SDS011;37795;53.236;5.704;2023-09-19T00:51:11;11.38;;;3.30;;
51718;SDS011;37795;53.236;5.704;2023-09-19T00:53:39;6.00;;;2.30;;
51718;SDS011;37795;53.236;5.704;2023-09-19T00:56:11;7.40;;;2.60;;
51718;SDS011;37795;53.236;5.704;2023-09-19T00:58:37;11.00;;;2.85;;
51718;SDS011;37795;53.236;5.704;2023-09-19T01:01:03;5.22;;;2.33;;
51718;SDS011;37795;53.236;5.704;2023-09-19T01:03:32;5.72;;;2.67;;
51718;SDS011;37795;53.236;5.704;2023-09-19T01:05:59;8.18;;;4.30;;
51718;SDS011;37795;53.236;5.704;2023-09-19T01:08:26;6.05;;;2.83;;
51718;SDS011;37795;53.236;5.704;2023-09-19T01:11:03;6.32;;;2.67;;
51718;SDS011;37795;53.236;5.704;2023-09-19T01:13:47;8.05;;;3.17;;
51718;SDS011;37795;53.236;5.704;2023-09-19T01:16:28;6.32;;;2.80;;
51718;SDS011;37795;53.236;5.704;2023-09-19T01:30:35;4.90;;;3.05;;
51718;SDS011;37795;53.236;5.704;2023-09-19T01:33:04;11.85;;;2.72;;
51718;SDS011;37795;53.236;5.704;2023-09-19T01:35:31;12.38;;;2.92;;
51718;SDS011;37795;53.236;5.704;2023-09-19T01:37:59;8.20;;;3.38;;
51718;SDS011;37795;53.236;5.704;2023-09-19T01:40:25;7.80;;;3.30;;
51718;SDS011;37795;53.236;5.704;2023-09-19T01:45:33;8.05;;;2.90;;
51718;SDS011;37795;53.236;5.704;2023-09-19T01:53:51;5.05;;;3.08;;
51718;SDS011;37795;53.236;5.704;2023-09-19T01:56:36;5.93;;;2.92;;
51718;SDS011;37795;53.236;5.704;2023-09-19T01:59:09;6.75;;;2.70;;
51718;SDS011;37795;53.236;5.704;2023-09-19T02:01:38;6.93;;;2.45;;
51718;SDS011;37795;53.236;5.704;2023-09-19T02:04:06;7.22;;;2.50;;
51718;SDS011;37795;53.236;5.704;2023-09-19T02:06:32;5.53;;;2.55;;
51718;SDS011;37795;53.236;5.704;2023-09-19T02:08:59;4.43;;;1.92;;
51718;SDS011;37795;53.236;5.704;2023-09-19T02:11:25;7.00;;;1.80;;
51718;SDS011;37795;53.236;5.704;2023-09-19T02:13:51;8.90;;;3.90;;
51718;SDS011;37795;53.236;5.704;2023-09-19T02:16:19;9.40;;;3.10;;
51718;SDS011;37795;53.236;5.704;2023-09-19T02:18:47;5.38;;;2.45;;
51718;SDS011;37795;53.236;5.704;2023-09-19T02:21:14;8.20;;;3.13;;
51718;SDS011;37795;53.236;5.704;2023-09-19T02:23:42;7.70;;;3.03;;
51718;SDS011;37795;53.236;5.704;2023-09-19T02:26:08;5.50;;;2.40;;
51718;SDS011;37795;53.236;5.704;2023-09-19T02:28:34;5.50;;;2.35;;
51718;SDS011;37795;53.236;5.704;2023-09-19T02:31:01;9.75;;;3.08;;
51718;SDS011;37795;53.236;5.704;2023-09-19T02:33:27;9.35;;;3.25;;
51718;SDS011;37795;53.236;5.704;2023-09-19T02:35:57;11.70;;;3.15;;
51718;SDS011;37795;53.236;5.704;2023-09-19T02:38:24;11.03;;;3.33;;
51718;SDS011;37795;53.236;5.704;2023-09-19T02:40:51;5.55;;;2.78;;
51718;SDS011;37795;53.236;5.704;2023-09-19T02:43:17;5.70;;;2.90;;
51718;SDS011;37795;53.236;5.704;2023-09-19T02:45:45;8.02;;;2.90;;
51718;SDS011;37795;53.236;5.704;2023-09-19T02:48:12;5.15;;;2.42;;
51718;SDS011;37795;53.236;5.704;2023-09-19T02:50:37;4.70;;;2.72;;
51718;SDS011;37795;53.236;5.704;2023-09-19T02:53:05;8.47;;;2.50;;
51718;SDS011;37795;53.236;5.704;2023-09-19T02:55:31;5.70;;;2.47;;
51718;SDS011;37795;53.236;5.704;2023-09-19T02:57:57;12.48;;;3.13;;
51718;SDS011;37795;53.236;5.704;2023-09-19T03:00:23;4.68;;;2.13;;
51718;SDS011;37795;53.236;5.704;2023-09-19T03:02:50;3.28;;;1.98;;
51718;SDS011;37795;53.236;5.704;2023-09-19T03:05:18;7.93;;;2.88;;
51718;SDS011;37795;53.236;5.704;2023-09-19T03:07:44;5.28;;;2.47;;
51718;SDS011;37795;53.236;5.704;2023-09-19T03:10:12;8.25;;;3.40;;
51718;SDS011;37795;53.236;5.704;2023-09-19T03:12:40;6.40;;;2.40;;
51718;SDS011;37795;53.236;5.704;2023-09-19T03:15:05;5.27;;;2.73;;
51718;SDS011;37795;53.236;5.704;2023-09-19T03:17:33;7.90;;;2.70;;
51718;SDS011;37795;53.236;5.704;2023-09-19T03:20:00;7.78;;;3.58;;
51718;SDS011;37795;53.236;5.704;2023-09-19T03:22:29;6.17;;;3.00;;
51718;SDS011;37795;53.236;5.704;2023-09-19T03:24:54;5.85;;;3.42;;
51718;SDS011;37795;53.236;5.704;2023-09-19T03:27:20;4.65;;;2.75;;
51718;SDS011;37795;53.236;5.704;2023-09-19T03:29:49;4.30;;;1.75;;
51718;SDS011;37795;53.236;5.704;2023-09-19T03:32:15;8.15;;;2.50;;
51718;SDS011;37795;53.236;5.704;2023-09-19T03:34:40;6.83;;;2.77;;
51718;SDS011;37795;53.236;5.704;2023-09-19T03:37:11;7.32;;;3.15;;
51718;SDS011;37795;53.236;5.704;2023-09-19T03:39:37;9.50;;;2.80;;
51718;SDS011;37795;53.236;5.704;2023-09-19T03:42:03;4.80;;;2.83;;
51718;SDS011;37795;53.236;5.704;2023-09-19T03:44:29;5.82;;;2.20;;
51718;SDS011;37795;53.236;5.704;2023-09-19T03:46:55;3.92;;;2.30;;
51718;SDS011;37795;53.236;5.704;2023-09-19T03:49:22;11.53;;;3.10;;
51718;SDS011;37795;53.236;5.704;2023-09-19T03:51:47;8.00;;;3.00;;
51718;SDS011;37795;53.236;5.704;2023-09-19T03:54:13;7.88;;;2.67;;
51718;SDS011;37795;53.236;5.704;2023-09-19T03:56:39;5.53;;;2.90;;
51718;SDS011;37795;53.236;5.704;2023-09-19T03:59:05;8.10;;;3.50;;
51718;SDS011;37795;53.236;5.704;2023-09-19T04:01:31;7.60;;;3.33;;
51718;SDS011;37795;53.236;5.704;2023-09-19T04:03:58;5.63;;;2.65;;
51718;SDS011;37795;53.236;5.704;2023-09-19T04:06:33;5.93;;;2.30;;
51718;SDS011;37795;53.236;5.704;2023-09-19T04:09:02;6.03;;;2.22;;
51718;SDS011;37795;53.236;5.704;2023-09-19T04:11:29;7.43;;;3.13;;
51718;SDS011;37795;53.236;5.704;2023-09-19T04:13:55;8.48;;;2.85;;
51718;SDS011;37795;53.236;5.704;2023-09-19T04:16:21;8.55;;;3.25;;
51718;SDS011;37795;53.236;5.704;2023-09-19T04:18:47;10.43;;;3.10;;
51718;SDS011;37795;53.236;5.704;2023-09-19T04:21:13;4.72;;;2.83;;
51718;SDS011;37795;53.236;5.704;2023-09-19T04:23:38;4.55;;;3.00;;
51718;SDS011;37795;53.236;5.704;2023-09-19T04:26:04;5.27;;;2.80;;
51718;SDS011;37795;53.236;5.704;2023-09-19T04:28:30;5.97;;;2.53;;
51718;SDS011;37795;53.236;5.704;2023-09-19T04:30:57;6.80;;;3.13;;
51718;SDS011;37795;53.236;5.704;2023-09-19T04:33:24;6.82;;;2.70;;
51718;SDS011;37795;53.236;5.704;2023-09-19T04:35:50;5.72;;;2.28;;
51718;SDS011;37795;53.236;5.704;2023-09-19T04:38:17;6.87;;;3.23;;
51718;SDS011;37795;53.236;5.704;2023-09-19T04:40:44;8.55;;;2.75;;
51718;SDS011;37795;53.236;5.704;2023-09-19T04:43:10;4.87;;;2.50;;
51718;SDS011;37795;53.236;5.704;2023-09-19T04:45:36;6.38;;;3.40;;
51718;SDS011;37795;53.236;5.704;2023-09-19T04:48:04;8.32;;;2.97;;
51718;SDS011;37795;53.236;5.704;2023-09-19T04:50:31;7.07;;;3.08;;
51718;SDS011;37795;53.236;5.704;2023-09-19T04:52:59;5.80;;;2.60;;
51718;SDS011;37795;53.236;5.704;2023-09-19T04:55:26;5.57;;;2.90;;
51718;SDS011;37795;53.236;5.704;2023-09-19T04:57:52;8.55;;;3.20;;
51718;SDS011;37795;53.236;5.704;2023-09-19T05:00:22;6.93;;;2.83;;
51718;SDS011;37795;53.236;5.704;2023-09-19T05:02:55;7.22;;;3.28;;
51718;SDS011;37795;53.236;5.704;2023-09-19T05:05:21;8.15;;;3.13;;
51718;SDS011;37795;53.236;5.704;2023-09-19T05:07:48;9.05;;;3.50;;
51718;SDS011;37795;53.236;5.704;2023-09-19T05:10:14;9.00;;;3.78;;
51718;SDS011;37795;53.236;5.704;2023-09-19T05:12:41;8.63;;;3.22;;
51718;SDS011;37795;53.236;5.704;2023-09-19T05:15:10;6.70;;;2.40;;
51718;SDS011;37795;53.236;5.704;2023-09-19T05:17:35;8.02;;;2.63;;
51718;SDS011;37795;53.236;5.704;2023-09-19T05:20:04;4.65;;;2.75;;
51718;SDS011;37795;53.236;5.704;2023-09-19T05:22:59;6.68;;;2.50;;
51718;SDS011;37795;53.236;5.704;2023-09-19T05:25:34;7.45;;;2.78;;
51718;SDS011;37795;53.236;5.704;2023-09-19T05:28:07;4.25;;;2.90;;
51718;SDS011;37795;53.236;5.704;2023-09-19T05:30:34;6.25;;;2.97;;
51718;SDS011;37795;53.236;5.704;2023-09-19T05:33:01;7.25;;;2.78;;
51718;SDS011;37795;53.236;5.704;2023-09-19T05:35:27;11.35;;;3.65;;
51718;SDS011;37795;53.236;5.704;2023-09-19T05:37:54;7.00;;;2.67;;
51718;SDS011;37795;53.236;5.704;2023-09-19T05:40:20;5.40;;;2.70;;
51718;SDS011;37795;53.236;5.704;2023-09-19T05:42:46;11.00;;;3.50;;
51718;SDS011;37795;53.236;5.704;2023-09-19T05:45:12;12.23;;;4.28;;
51718;SDS011;37795;53.236;5.704;2023-09-19T05:47:42;8.82;;;3.28;;
51718;SDS011;37795;53.236;5.704;2023-09-19T05:50:10;5.22;;;2.70;;
51718;SDS011;37795;53.236;5.704;2023-09-19T05:52:37;8.35;;;3.13;;
51718;SDS011;37795;53.236;5.704;2023-09-19T05:55:07;13.27;;;3.75;;
51718;SDS011;37795;53.236;5.704;2023-09-19T05:57:36;12.07;;;3.60;;
51718;SDS011;37795;53.236;5.704;2023-09-19T06:00:07;12.63;;;2.80;;
51718;SDS011;37795;53.236;5.704;2023-09-19T06:02:38;9.07;;;3.38;;
51718;SDS011;37795;53.236;5.704;2023-09-19T06:05:05;5.47;;;2.58;;
51718;SDS011;37795;53.236;5.704;2023-09-19T06:07:34;6.30;;;3.08;;
51718;SDS011;37795;53.236;5.704;2023-09-19T06:10:05;11.52;;;3.47;;
51718;SDS011;37795;53.236;5.704;2023-09-19T06:12:44;12.43;;;4.00;;
51718;SDS011;37795;53.236;5.704;2023-09-19T06:15:10;10.52;;;3.80;;
51718;SDS011;37795;53.236;5.704;2023-09-19T06:17:51;10.07;;;3.80;;
51718;SDS011;37795;53.236;5.704;2023-09-19T06:20:22;8.40;;;3.60;;
51718;SDS011;37795;53.236;5.704;2023-09-19T06:22:49;13.57;;;3.70;;
51718;SDS011;37795;53.236;5.704;2023-09-19T06:25:15;8.77;;;3.15;;
51718;SDS011;37795;53.236;5.704;2023-09-19T06:27:53;6.20;;;3.03;;
51718;SDS011;37795;53.236;5.704;2023-09-19T06:30:20;4.60;;;2.83;;
51718;SDS011;37795;53.236;5.704;2023-09-19T06:32:48;10.75;;;3.22;;
51718;SDS011;37795;53.236;5.704;2023-09-19T06:35:15;9.85;;;3.42;;
51718;SDS011;37795;53.236;5.704;2023-09-19T06:37:41;7.97;;;3.78;;
51718;SDS011;37795;53.236;5.704;2023-09-19T06:40:11;8.18;;;3.38;;
51718;SDS011;37795;53.236;5.704;2023-09-19T06:42:41;14.48;;;3.67;;
51718;SDS011;37795;53.236;5.704;2023-09-19T06:45:27;7.50;;;2.63;;
51718;SDS011;37795;53.236;5.704;2023-09-19T06:54:07;14.25;;;4.15;;
51718;SDS011;37795;53.236;5.704;2023-09-19T06:56:33;9.43;;;4.70;;
51718;SDS011;37795;53.236;5.704;2023-09-19T06:58:59;10.52;;;5.20;;
51718;SDS011;37795;53.236;5.704;2023-09-19T07:01:24;10.57;;;3.90;;
51718;SDS011;37795;53.236;5.704;2023-09-19T07:03:50;12.23;;;4.55;;
51718;SDS011;37795;53.236;5.704;2023-09-19T07:06:16;7.57;;;3.75;;
51718;SDS011;37795;53.236;5.704;2023-09-19T07:08:42;13.85;;;4.43;;
51718;SDS011;37795;53.236;5.704;2023-09-19T07:11:10;10.13;;;4.57;;
51718;SDS011;37795;53.236;5.704;2023-09-19T07:13:37;10.65;;;4.30;;
51718;SDS011;37795;53.236;5.704;2023-09-19T07:16:04;10.32;;;4.85;;
51718;SDS011;37795;53.236;5.704;2023-09-19T07:18:30;12.65;;;5.03;;
51718;SDS011;37795;53.236;5.704;2023-09-19T07:20:57;12.82;;;4.68;;
51718;SDS011;37795;53.236;5.704;2023-09-19T07:23:26;11.10;;;4.10;;
51718;SDS011;37795;53.236;5.704;2023-09-19T07:25:52;16.77;;;5.25;;
51718;SDS011;37795;53.236;5.704;2023-09-19T07:28:22;11.75;;;4.82;;
51718;SDS011;37795;53.236;5.704;2023-09-19T07:30:47;11.80;;;4.63;;
51718;SDS011;37795;53.236;5.704;2023-09-19T07:33:13;9.88;;;4.75;;
51718;SDS011;37795;53.236;5.704;2023-09-19T07:35:40;16.42;;;4.82;;
51718;SDS011;37795;53.236;5.704;2023-09-19T07:38:06;9.82;;;4.53;;
51718;SDS011;37795;53.236;5.704;2023-09-19T07:40:32;18.40;;;5.13;;
51718;SDS011;37795;53.236;5.704;2023-09-19T07:42:58;9.45;;;4.13;;
51718;SDS011;37795;53.236;5.704;2023-09-19T07:45:29;10.07;;;4.70;;
51718;SDS011;37795;53.236;5.704;2023-09-19T07:47:55;11.65;;;4.38;;
51718;SDS011;37795;53.236;5.704;2023-09-19T07:50:21;9.35;;;3.70;;
51718;SDS011;37795;53.236;5.704;2023-09-19T07:52:47;15.23;;;4.82;;
51718;SDS011;37795;53.236;5.704;2023-09-19T07:55:17;13.05;;;4.82;;
51718;SDS011;37795;53.236;5.704;2023-09-19T07:57:45;12.10;;;4.43;;
51718;SDS011;37795;53.236;5.704;2023-09-19T08:00:11;13.73;;;5.07;;
51718;SDS011;37795;53.236;5.704;2023-09-19T08:02:38;10.55;;;4.88;;
51718;SDS011;37795;53.236;5.704;2023-09-19T08:05:05;12.30;;;4.53;;
51718;SDS011;37795;53.236;5.704;2023-09-19T08:07:35;8.93;;;4.38;;
51718;SDS011;37795;53.236;5.704;2023-09-19T08:10:01;9.32;;;3.72;;
51718;SDS011;37795;53.236;5.704;2023-09-19T08:12:38;11.50;;;5.03;;
51718;SDS011;37795;53.236;5.704;2023-09-19T08:15:11;7.07;;;3.83;;
51718;SDS011;37795;53.236;5.704;2023-09-19T08:17:40;11.07;;;4.10;;
51718;SDS011;37795;53.236;5.704;2023-09-19T08:20:07;17.70;;;5.25;;
51718;SDS011;37795;53.236;5.704;2023-09-19T08:22:40;12.27;;;5.10;;
51718;SDS011;37795;53.236;5.704;2023-09-19T08:25:07;10.75;;;4.97;;
51718;SDS011;37795;53.236;5.704;2023-09-19T08:27:33;14.40;;;4.95;;
51718;SDS011;37795;53.236;5.704;2023-09-19T08:29:59;11.07;;;4.70;;
51718;SDS011;37795;53.236;5.704;2023-09-19T08:32:25;13.20;;;5.38;;
51718;SDS011;37795;53.236;5.704;2023-09-19T08:34:52;9.60;;;4.40;;
51718;SDS011;37795;53.236;5.704;2023-09-19T08:37:18;13.82;;;4.60;;
51718;SDS011;37795;53.236;5.704;2023-09-19T08:39:43;13.13;;;4.68;;
51718;SDS011;37795;53.236;5.704;2023-09-19T08:42:09;11.23;;;5.53;;
51718;SDS011;37795;53.236;5.704;2023-09-19T08:44:37;11.43;;;4.93;;
51718;SDS011;37795;53.236;5.704;2023-09-19T08:47:14;10.73;;;5.15;;
51718;SDS011;37795;53.236;5.704;2023-09-19T08:52:19;9.35;;;4.03;;
51718;SDS011;37795;53.236;5.704;2023-09-19T08:54:48;13.27;;;4.03;;
51718;SDS011;37795;53.236;5.704;2023-09-19T08:57:18;12.23;;;4.63;;
51718;SDS011;37795;53.236;5.704;2023-09-19T08:59:47;13.98;;;4.40;;
51718;SDS011;37795;53.236;5.704;2023-09-19T09:02:15;17.75;;;5.43;;
51718;SDS011;37795;53.236;5.704;2023-09-19T09:04:43;12.65;;;5.38;;
51718;SDS011;37795;53.236;5.704;2023-09-19T09:07:12;10.57;;;4.33;;
51718;SDS011;37795;53.236;5.704;2023-09-19T09:09:39;7.70;;;3.60;;
51718;SDS011;37795;53.236;5.704;2023-09-19T09:12:12;13.25;;;4.68;;
51718;SDS011;37795;53.236;5.704;2023-09-19T09:14:45;10.80;;;4.25;;
51718;SDS011;37795;53.236;5.704;2023-09-19T09:17:13;11.35;;;4.13;;
51718;SDS011;37795;53.236;5.704;2023-09-19T09:19:40;10.63;;;4.50;;
51718;SDS011;37795;53.236;5.704;2023-09-19T09:22:09;14.52;;;4.72;;
51718;SDS011;37795;53.236;5.704;2023-09-19T09:24:36;11.82;;;4.05;;
51718;SDS011;37795;53.236;5.704;2023-09-19T09:27:05;10.65;;;4.32;;
51718;SDS011;37795;53.236;5.704;2023-09-19T09:29:53;7.20;;;4.23;;
51718;SDS011;37795;53.236;5.704;2023-09-19T09:32:26;11.85;;;4.35;;
51718;SDS011;37795;53.236;5.704;2023-09-19T09:35:00;11.20;;;4.28;;
51718;SDS011;37795;53.236;5.704;2023-09-19T09:37:26;11.30;;;4.43;;
51718;SDS011;37795;53.236;5.704;2023-09-19T09:39:58;12.15;;;4.43;;
51718;SDS011;37795;53.236;5.704;2023-09-19T09:42:43;13.50;;;4.90;;
51718;SDS011;37795;53.236;5.704;2023-09-19T09:45:12;14.60;;;5.40;;
51718;SDS011;37795;53.236;5.704;2023-09-19T09:47:42;11.83;;;4.77;;
51718;SDS011;37795;53.236;5.704;2023-09-19T09:58:35;11.70;;;5.55;;
51718;SDS011;37795;53.236;5.704;2023-09-19T10:01:03;10.90;;;4.72;;
51718;SDS011;37795;53.236;5.704;2023-09-19T10:03:39;11.93;;;3.75;;
51718;SDS011;37795;53.236;5.704;2023-09-19T10:06:06;10.63;;;4.05;;
51718;SDS011;37795;53.236;5.704;2023-09-19T10:14:16;15.23;;;5.40;;
51718;SDS011;37795;53.236;5.704;2023-09-19T10:16:46;11.27;;;4.38;;
51718;SDS011;37795;53.236;5.704;2023-09-19T10:19:58;9.63;;;4.05;;
51718;SDS011;37795;53.236;5.704;2023-09-19T10:22:02;15.15;;;4.35;;
51718;SDS011;37795;53.236;5.704;2023-09-19T10:24:30;11.45;;;4.28;;
51718;SDS011;37795;53.236;5.704;2023-09-19T10:27:01;20.25;;;5.10;;
51718;SDS011;37795;53.236;5.704;2023-09-19T10:29:28;13.48;;;3.75;;
51718;SDS011;37795;53.236;5.704;2023-09-19T10:31:57;12.93;;;3.70;;
51718;SDS011;37795;53.236;5.704;2023-09-19T10:34:25;12.98;;;4.45;;
51718;SDS011;37795;53.236;5.704;2023-09-19T10:36:51;14.32;;;5.72;;
51718;SDS011;37795;53.236;5.704;2023-09-19T10:39:19;12.70;;;4.80;;
51718;SDS011;37795;53.236;5.704;2023-09-19T10:41:51;12.55;;;4.35;;
51718;SDS011;37795;53.236;5.704;2023-09-19T10:44:24;11.90;;;4.43;;
51718;SDS011;37795;53.236;5.704;2023-09-19T10:56:40;14.15;;;4.97;;
51718;SDS011;37795;53.236;5.704;2023-09-19T10:59:12;8.48;;;4.32;;
51718;SDS011;37795;53.236;5.704;2023-09-19T11:01:49;7.30;;;4.43;;
51718;SDS011;37795;53.236;5.704;2023-09-19T11:07:05;16.20;;;5.78;;
51718;SDS011;37795;53.236;5.704;2023-09-19T11:09:56;15.65;;;4.75;;
51718;SDS011;37795;53.236;5.704;2023-09-19T11:15:08;9.15;;;4.47;;
51718;SDS011;37795;53.236;5.704;2023-09-19T11:17:36;11.93;;;4.67;;
51718;SDS011;37795;53.236;5.704;2023-09-19T11:20:18;14.55;;;4.65;;
51718;SDS011;37795;53.236;5.704;2023-09-19T11:25:41;13.30;;;5.55;;
51718;SDS011;37795;53.236;5.704;2023-09-19T11:30:45;12.90;;;5.28;;
51718;SDS011;37795;53.236;5.704;2023-09-19T11:33:19;10.43;;;4.95;;
51718;SDS011;37795;53.236;5.704;2023-09-19T11:36:06;9.35;;;4.85;;
51718;SDS011;37795;53.236;5.704;2023-09-19T11:46:29;12.20;;;4.72;;
51718;SDS011;37795;53.236;5.704;2023-09-19T11:49:05;14.90;;;5.28;;
51718;SDS011;37795;53.236;5.704;2023-09-19T11:51:41;13.35;;;5.45;;
51718;SDS011;37795;53.236;5.704;2023-09-19T11:54:12;15.98;;;5.63;;
51718;SDS011;37795;53.236;5.704;2023-09-19T11:56:43;16.20;;;6.03;;
51718;SDS011;37795;53.236;5.704;2023-09-19T11:59:10;12.60;;;5.50;;
51718;SDS011;37795;53.236;5.704;2023-09-19T12:01:36;11.20;;;5.35;;
51718;SDS011;37795;53.236;5.704;2023-09-19T12:04:08;12.88;;;5.68;;
51718;SDS011;37795;53.236;5.704;2023-09-19T12:06:36;11.17;;;5.30;;
51718;SDS011;37795;53.236;5.704;2023-09-19T12:09:07;10.63;;;5.10;;
51718;SDS011;37795;53.236;5.704;2023-09-19T12:11:42;11.48;;;4.45;;
51718;SDS011;37795;53.236;5.704;2023-09-19T12:14:11;10.73;;;4.47;;
51718;SDS011;37795;53.236;5.704;2023-09-19T12:16:50;8.15;;;3.40;;
51718;SDS011;37795;53.236;5.704;2023-09-19T12:19:21;11.07;;;3.83;;
51718;SDS011;37795;53.236;5.704;2023-09-19T12:22:21;6.82;;;2.55;;
51718;SDS011;37795;53.236;5.704;2023-09-19T12:24:41;12.18;;;4.22;;
51718;SDS011;37795;53.236;5.704;2023-09-19T12:27:09;8.50;;;3.67;;
51718;SDS011;37795;53.236;5.704;2023-09-19T12:32:14;10.73;;;4.38;;
51718;SDS011;37795;53.236;5.704;2023-09-19T12:34:42;9.40;;;3.70;;
51718;SDS011;37795;53.236;5.704;2023-09-19T12:37:15;11.00;;;3.78;;
51718;SDS011;37795;53.236;5.704;2023-09-19T12:39:45;11.32;;;4.25;;
51718;SDS011;37795;53.236;5.704;2023-09-19T12:42:14;6.75;;;3.85;;
51718;SDS011;37795;53.236;5.704;2023-09-19T12:44:41;9.25;;;4.45;;
51718;SDS011;37795;53.236;5.704;2023-09-19T12:47:12;12.27;;;4.40;;
51718;SDS011;37795;53.236;5.704;2023-09-19T12:52:42;8.90;;;4.47;;
51718;SDS011;37795;53.236;5.704;2023-09-19T12:55:20;8.98;;;4.13;;
51718;SDS011;37795;53.236;5.704;2023-09-19T13:00:31;8.25;;;3.90;;
51718;SDS011;37795;53.236;5.704;2023-09-19T13:05:58;11.18;;;4.47;;
51718;SDS011;37795;53.236;5.704;2023-09-19T13:08:29;8.90;;;4.65;;
51718;SDS011;37795;53.236;5.704;2023-09-19T13:11:00;10.15;;;4.85;;
51718;SDS011;37795;53.236;5.704;2023-09-19T13:13:26;6.32;;;3.70;;
51718;SDS011;37795;53.236;5.704;2023-09-19T13:15:53;8.75;;;3.97;;
51718;SDS011;37795;53.236;5.704;2023-09-19T13:18:19;14.25;;;4.43;;
51718;SDS011;37795;53.236;5.704;2023-09-19T13:21:05;7.80;;;3.80;;
51718;SDS011;37795;53.236;5.704;2023-09-19T13:23:35;8.03;;;3.30;;
51718;SDS011;37795;53.236;5.704;2023-09-19T13:26:02;7.63;;;4.07;;
51718;SDS011;37795;53.236;5.704;2023-09-19T13:28:29;11.35;;;3.85;;
51718;SDS011;37795;53.236;5.704;2023-09-19T13:30:55;11.18;;;3.65;;
51718;SDS011;37795;53.236;5.704;2023-09-19T13:33:22;13.75;;;4.63;;
51718;SDS011;37795;53.236;5.704;2023-09-19T13:35:47;11.88;;;4.38;;
51718;SDS011;37795;53.236;5.704;2023-09-19T13:38:13;12.23;;;4.65;;
51718;SDS011;37795;53.236;5.704;2023-09-19T13:40:39;9.18;;;4.55;;
51718;SDS011;37795;53.236;5.704;2023-09-19T13:43:07;9.90;;;5.03;;
51718;SDS011;37795;53.236;5.704;2023-09-19T13:45:33;8.85;;;4.45;;
51718;SDS011;37795;53.236;5.704;2023-09-19T13:47:59;11.77;;;4.90;;
51718;SDS011;37795;53.236;5.704;2023-09-19T13:50:25;10.00;;;4.30;;
51718;SDS011;37795;53.236;5.704;2023-09-19T13:52:51;14.70;;;5.10;;
51718;SDS011;37795;53.236;5.704;2023-09-19T13:55:18;11.73;;;4.57;;
51718;SDS011;37795;53.236;5.704;2023-09-19T13:57:47;12.93;;;5.57;;
51718;SDS011;37795;53.236;5.704;2023-09-19T14:00:19;14.13;;;4.78;;
51718;SDS011;37795;53.236;5.704;2023-09-19T14:02:45;10.23;;;4.95;;
51718;SDS011;37795;53.236;5.704;2023-09-19T14:05:14;15.70;;;5.63;;
51718;SDS011;37795;53.236;5.704;2023-09-19T14:07:42;12.52;;;5.47;;
51718;SDS011;37795;53.236;5.704;2023-09-19T14:10:08;10.27;;;5.20;;
51718;SDS011;37795;53.236;5.704;2023-09-19T14:12:38;11.50;;;4.90;;
51718;SDS011;37795;53.236;5.704;2023-09-19T14:15:08;15.95;;;6.20;;
51718;SDS011;37795;53.236;5.704;2023-09-19T14:17:35;8.98;;;4.53;;
51718;SDS011;37795;53.236;5.704;2023-09-19T14:20:01;15.03;;;5.20;;
51718;SDS011;37795;53.236;5.704;2023-09-19T14:22:26;14.13;;;5.67;;
51718;SDS011;37795;53.236;5.704;2023-09-19T14:24:52;15.63;;;6.72;;
51718;SDS011;37795;53.236;5.704;2023-09-19T14:27:18;15.48;;;6.07;;
51718;SDS011;37795;53.236;5.704;2023-09-19T14:29:44;13.88;;;5.30;;
51718;SDS011;37795;53.236;5.704;2023-09-19T14:32:10;13.03;;;5.80;;
51718;SDS011;37795;53.236;5.704;2023-09-19T14:34:35;15.60;;;6.40;;
51718;SDS011;37795;53.236;5.704;2023-09-19T14:37:07;15.23;;;5.75;;
51718;SDS011;37795;53.236;5.704;2023-09-19T14:39:33;16.92;;;5.78;;
51718;SDS011;37795;53.236;5.704;2023-09-19T14:41:58;15.80;;;6.03;;
51718;SDS011;37795;53.236;5.704;2023-09-19T14:44:24;14.17;;;6.13;;
51718;SDS011;37795;53.236;5.704;2023-09-19T14:46:50;20.60;;;6.17;;
51718;SDS011;37795;53.236;5.704;2023-09-19T14:49:16;12.35;;;6.13;;
51718;SDS011;37795;53.236;5.704;2023-09-19T14:51:42;17.52;;;6.43;;
51718;SDS011;37795;53.236;5.704;2023-09-19T14:54:12;16.55;;;5.75;;
51718;SDS011;37795;53.236;5.704;2023-09-19T14:56:38;13.00;;;5.83;;
51718;SDS011;37795;53.236;5.704;2023-09-19T14:59:04;16.25;;;6.25;;
51718;SDS011;37795;53.236;5.704;2023-09-19T15:01:31;19.63;;;7.18;;
51718;SDS011;37795;53.236;5.704;2023-09-19T15:03:57;22.08;;;7.45;;
51718;SDS011;37795;53.236;5.704;2023-09-19T15:06:26;15.60;;;6.63;;
51718;SDS011;37795;53.236;5.704;2023-09-19T15:08:51;22.85;;;7.22;;
51718;SDS011;37795;53.236;5.704;2023-09-19T15:11:17;19.02;;;6.80;;
51718;SDS011;37795;53.236;5.704;2023-09-19T15:13:44;20.75;;;7.70;;
51718;SDS011;37795;53.236;5.704;2023-09-19T15:16:10;18.83;;;7.25;;
51718;SDS011;37795;53.236;5.704;2023-09-19T15:18:39;18.60;;;8.20;;
51718;SDS011;37795;53.236;5.704;2023-09-19T15:21:07;21.77;;;8.10;;
51718;SDS011;37795;53.236;5.704;2023-09-19T15:23:34;21.00;;;8.27;;
51718;SDS011;37795;53.236;5.704;2023-09-19T15:26:02;23.93;;;8.63;;
51718;SDS011;37795;53.236;5.704;2023-09-19T15:28:28;22.80;;;8.48;;
51718;SDS011;37795;53.236;5.704;2023-09-19T15:31:02;23.80;;;8.73;;
51718;SDS011;37795;53.236;5.704;2023-09-19T15:33:28;24.15;;;7.82;;
51718;SDS011;37795;53.236;5.704;2023-09-19T15:41:18;27.02;;;10.93;;
51718;SDS011;37795;53.236;5.704;2023-09-19T15:43:45;23.85;;;9.20;;
51718;SDS011;37795;53.236;5.704;2023-09-19T15:46:10;20.15;;;8.98;;
51718;SDS011;37795;53.236;5.704;2023-09-19T15:48:36;21.20;;;7.55;;
51718;SDS011;37795;53.236;5.704;2023-09-19T15:51:03;18.67;;;8.47;;
51718;SDS011;37795;53.236;5.704;2023-09-19T15:53:51;18.05;;;7.97;;
51718;SDS011;37795;53.236;5.704;2023-09-19T15:56:16;21.05;;;8.25;;
51718;SDS011;37795;53.236;5.704;2023-09-19T15:58:46;20.48;;;8.02;;
51718;SDS011;37795;53.236;5.704;2023-09-19T16:01:13;26.23;;;8.68;;
51718;SDS011;37795;53.236;5.704;2023-09-19T16:03:42;24.17;;;8.73;;
51718;SDS011;37795;53.236;5.704;2023-09-19T16:06:16;23.65;;;10.68;;
51718;SDS011;37795;53.236;5.704;2023-09-19T16:08:43;27.58;;;9.77;;
51718;SDS011;37795;53.236;5.704;2023-09-19T16:11:11;22.40;;;8.90;;
51718;SDS011;37795;53.236;5.704;2023-09-19T16:13:38;20.08;;;8.30;;
51718;SDS011;37795;53.236;5.704;2023-09-19T16:16:06;19.88;;;8.98;;
51718;SDS011;37795;53.236;5.704;2023-09-19T16:18:33;22.23;;;9.05;;